createdAt,value
2023-03-29T00:01:35.371Z,98486.73
2023-03-29T00:04:04.554Z,98484.19
2023-03-29T00:06:32.449Z,98487.21
2023-03-29T00:08:59.718Z,98490.33
2023-03-29T00:11:26.845Z,98485.23
2023-03-29T00:13:53.744Z,98488.16
2023-03-29T00:16:26.279Z,98482.80
2023-03-29T00:18:53.475Z,98486.59
2023-03-29T00:21:21.743Z,98482.35
2023-03-29T00:23:49.650Z,98483.47
2023-03-29T00:26:18.506Z,98475.52
2023-03-29T00:28:48.314Z,98480.40
2023-03-29T00:31:17.881Z,98482.95
2023-03-29T00:33:45.293Z,98487.86
2023-03-29T00:36:12.397Z,98497.58
2023-03-29T00:38:41.459Z,98500.55
2023-03-29T00:41:10.332Z,98502.34
2023-03-29T00:44:01.646Z,98503.73
2023-03-29T00:46:29.698Z,98503.66
2023-03-29T00:49:07.712Z,98516.02
2023-03-29T00:51:36.506Z,98513.20
2023-03-29T00:54:11.219Z,98523.61
2023-03-29T00:56:39.605Z,98525.91
2023-03-29T00:59:10.898Z,98530.73
2023-03-29T01:01:45.746Z,98546.02
2023-03-29T01:04:31.195Z,98553.23
2023-03-29T01:07:05.892Z,98556.90
2023-03-29T01:09:37.644Z,98562.78
2023-03-29T01:12:11.346Z,98576.11
2023-03-29T01:15:00.363Z,98587.80
2023-03-29T01:17:31.035Z,98585.74
2023-03-29T01:20:09.941Z,98597.86
2023-03-29T01:22:46.414Z,98602.89
2023-03-29T01:25:36.333Z,98602.65
2023-03-29T01:28:08.221Z,98609.27
2023-03-29T01:30:47.300Z,98600.21
2023-03-29T01:33:20.671Z,98609.76
2023-03-29T01:35:57.881Z,98608.77
2023-03-29T01:38:32.382Z,98616.16
2023-03-29T01:41:02.572Z,98616.42
2023-03-29T01:43:39.005Z,98616.23
2023-03-29T01:46:26.296Z,98622.07
2023-03-29T01:48:56.447Z,98619.23
2023-03-29T01:51:25.973Z,98618.27
2023-03-29T01:54:08.349Z,98625.64
2023-03-29T01:56:38.942Z,98624.87
2023-03-29T01:59:08.824Z,98633.34
2023-03-29T02:01:57.371Z,98639.30
2023-03-29T02:04:36.613Z,98652.64
2023-03-29T02:07:05.363Z,98662.77
2023-03-29T02:09:33.643Z,98661.23
2023-03-29T02:12:05.257Z,98663.54
2023-03-29T02:14:35.218Z,98675.00
2023-03-29T02:17:29.279Z,98677.43
2023-03-29T02:20:14.053Z,98684.52
2023-03-29T02:23:08.480Z,98685.25
2023-03-29T02:25:36.775Z,98688.79
2023-03-29T02:28:04.542Z,98693.44
2023-03-29T02:30:41.175Z,98697.89
2023-03-29T02:33:16.157Z,98695.11
2023-03-29T02:35:52.571Z,98702.66
2023-03-29T02:38:19.975Z,98703.45
2023-03-29T02:40:47.459Z,98703.30
2023-03-29T02:43:16.142Z,98702.75
2023-03-29T02:45:44.430Z,98700.02
2023-03-29T02:48:16.255Z,98706.45
2023-03-29T02:50:49.579Z,98703.70
2023-03-29T02:53:18.604Z,98712.44
2023-03-29T02:55:46.382Z,98708.55
2023-03-29T02:58:14.973Z,98704.11
2023-03-29T03:04:10.792Z,98708.23
2023-03-29T03:06:39.128Z,98703.56
2023-03-29T03:09:09.273Z,98695.75
2023-03-29T03:11:45.931Z,98706.16
2023-03-29T03:14:14.312Z,98705.24
2023-03-29T03:16:50.230Z,98711.61
2023-03-29T03:19:24.845Z,98710.02
2023-03-29T03:21:52.412Z,98714.65
2023-03-29T03:24:21.970Z,98714.04
2023-03-29T03:26:50.495Z,98717.73
2023-03-29T03:29:18.774Z,98716.83
2023-03-29T03:32:07.142Z,98725.38
2023-03-29T03:34:53.022Z,98728.95
2023-03-29T03:37:33.806Z,98728.35
2023-03-29T03:40:03.747Z,98732.61
2023-03-29T03:42:32.574Z,98730.53
2023-03-29T03:45:03.719Z,98735.39
2023-03-29T03:47:53.607Z,98737.50
2023-03-29T03:50:31.496Z,98741.86
2023-03-29T03:53:01.648Z,98727.39
2023-03-29T03:55:34.948Z,98738.46
2023-03-29T03:58:12.040Z,98745.80
2023-03-29T04:00:48.656Z,98746.16
2023-03-29T04:03:23.980Z,98754.54
2023-03-29T04:05:55.364Z,98754.08
2023-03-29T04:08:24.523Z,98762.45
2023-03-29T04:11:10.235Z,98770.52
2023-03-29T04:13:39.472Z,98780.00
2023-03-29T04:16:35.301Z,98781.98
2023-03-29T04:19:15.766Z,98794.73
2023-03-29T04:21:48.658Z,98796.45
2023-03-29T04:24:18.959Z,98802.20
2023-03-29T04:27:01.215Z,98800.80
2023-03-29T04:29:31.366Z,98809.61
2023-03-29T04:32:08.545Z,98809.45
2023-03-29T04:34:58.222Z,98811.55
2023-03-29T04:37:30.276Z,98810.84
2023-03-29T04:40:17.094Z,98810.17
2023-03-29T04:43:00.302Z,98811.83
2023-03-29T04:45:28.394Z,98815.98
2023-03-29T04:48:13.951Z,98816.63
2023-03-29T04:50:47.873Z,98820.16
2023-03-29T04:53:18.195Z,98824.43
2023-03-29T04:56:07.851Z,98826.38
2023-03-29T04:58:57.982Z,98823.09
2023-03-29T05:01:26.945Z,98833.35
2023-03-29T05:03:59.122Z,98839.33
2023-03-29T05:06:43.234Z,98840.13
2023-03-29T05:09:12.604Z,98842.95
2023-03-29T05:11:53.994Z,98841.02
2023-03-29T05:14:33.787Z,98849.77
2023-03-29T05:17:05.775Z,98847.34
2023-03-29T05:20:21.549Z,98850.20
2023-03-29T05:24:04.829Z,98847.80
2023-03-29T05:26:53.439Z,98852.13
2023-03-29T05:29:26.858Z,98853.25
2023-03-29T05:32:32.506Z,98855.48
2023-03-29T05:34:59.828Z,98847.49
2023-03-29T05:37:36.721Z,98854.31
2023-03-29T05:40:12.385Z,98856.58
2023-03-29T05:43:14.351Z,98856.77
2023-03-29T05:45:56.494Z,98862.22
2023-03-29T05:48:25.108Z,98864.68
2023-03-29T05:50:55.795Z,98858.48
2023-03-29T05:53:37.509Z,98866.33
2023-03-29T05:56:06.762Z,98860.89
2023-03-29T05:59:37.226Z,98866.66
2023-03-29T06:02:16.422Z,98874.89
2023-03-29T06:04:47.943Z,98876.88
2023-03-29T06:07:25.827Z,98881.02
2023-03-29T06:10:24.318Z,98888.83
2023-03-29T06:12:58.732Z,98890.98
2023-03-29T06:15:29.486Z,98894.33
2023-03-29T06:18:07.229Z,98897.16
2023-03-29T06:20:42.220Z,98903.39
2023-03-29T06:23:13.525Z,98908.84
2023-03-29T06:25:44.596Z,98911.42
2023-03-29T06:28:16.757Z,98908.73
2023-03-29T06:30:48.238Z,98916.08
2023-03-29T06:33:20.606Z,98923.70
2023-03-29T06:36:18.900Z,98928.05
2023-03-29T06:38:50.613Z,98931.86
2023-03-29T06:41:18.113Z,98932.45
2023-03-29T06:44:11.466Z,98941.95
2023-03-29T06:47:00.141Z,98950.73
2023-03-29T06:49:35.187Z,98954.18
2023-03-29T06:52:11.000Z,98958.46
2023-03-29T06:54:42.080Z,98958.50
2023-03-29T06:57:14.236Z,98968.23
2023-03-29T06:59:42.569Z,98974.87
2023-03-29T07:02:34.610Z,98969.48
2023-03-29T07:05:15.935Z,98973.95
2023-03-29T07:08:11.928Z,98983.05
2023-03-29T07:11:01.509Z,98993.39
2023-03-29T07:13:55.176Z,98998.10
2023-03-29T07:16:24.229Z,98998.13
2023-03-29T07:19:29.708Z,99004.77
2023-03-29T07:22:07.614Z,99002.27
2023-03-29T07:24:44.486Z,99012.24
2023-03-29T07:27:15.015Z,99010.67
2023-03-29T07:29:53.531Z,99021.48
2023-03-29T07:32:21.262Z,99026.48
2023-03-29T07:35:09.039Z,99033.02
2023-03-29T07:37:43.861Z,99029.60
2023-03-29T07:40:30.486Z,99037.48
2023-03-29T07:42:59.354Z,99044.91
2023-03-29T07:45:32.166Z,99052.34
2023-03-29T07:48:07.331Z,99052.15
2023-03-29T07:50:52.704Z,99049.98
2023-03-29T07:53:24.608Z,99051.58
2023-03-29T07:55:54.325Z,99057.03
2023-03-29T07:58:55.357Z,99063.23
2023-03-29T08:01:25.114Z,99072.23
2023-03-29T08:04:15.788Z,99066.69
2023-03-29T08:07:07.524Z,99075.33
2023-03-29T08:10:00.807Z,99075.61
2023-03-29T08:12:48.620Z,99082.30
2023-03-29T08:15:22.288Z,99080.66
2023-03-29T08:18:02.209Z,99080.59
2023-03-29T08:20:36.069Z,99088.64
2023-03-29T08:23:15.322Z,99091.06
2023-03-29T08:26:09.808Z,99094.31
2023-03-29T08:34:22.672Z,99105.94
2023-03-29T08:38:06.100Z,99115.58
2023-03-29T08:40:51.172Z,99118.59
2023-03-29T08:43:51.722Z,99115.19
2023-03-29T08:47:09.522Z,99124.23
2023-03-29T08:49:44.898Z,99121.71
2023-03-29T08:52:32.286Z,99124.15
2023-03-29T08:55:14.535Z,99125.98
2023-03-29T08:58:19.628Z,99123.64
2023-03-29T09:00:50.706Z,99122.20
2023-03-29T09:03:31.567Z,99122.78
2023-03-29T09:06:14.860Z,99125.91
2023-03-29T09:08:45.287Z,99126.29
2023-03-29T09:14:50.888Z,99129.86
2023-03-29T09:17:32.920Z,99135.49
2023-03-29T09:20:35.431Z,99133.77
2023-03-29T09:23:38.178Z,99135.95
2023-03-29T09:26:49.527Z,99138.61
2023-03-29T09:29:44.751Z,99146.77
2023-03-29T09:32:23.422Z,99148.13
2023-03-29T09:35:29.843Z,99158.27
2023-03-29T09:39:13.068Z,99165.39
2023-03-29T09:42:13.023Z,99173.42
2023-03-29T09:44:59.795Z,99179.02
2023-03-29T09:47:36.538Z,99183.96
2023-03-29T09:50:27.181Z,99183.91
2023-03-29T09:52:59.823Z,99186.70
2023-03-29T09:55:31.012Z,99190.29
2023-03-29T09:58:27.243Z,99199.67
2023-03-29T10:01:02.302Z,99207.37
2023-03-29T10:03:37.871Z,99210.59
2023-03-29T10:06:18.715Z,99201.95
2023-03-29T10:08:59.125Z,99205.71
2023-03-29T10:11:36.719Z,99203.00
2023-03-29T10:14:07.996Z,99209.81
2023-03-29T10:16:49.317Z,99218.02
2023-03-29T10:19:49.583Z,99217.57
2023-03-29T10:22:33.056Z,99223.65
2023-03-29T10:25:03.856Z,99226.39
2023-03-29T10:27:48.337Z,99222.67
2023-03-29T10:30:22.705Z,99227.55
2023-03-29T10:32:57.987Z,99233.81
2023-03-29T10:35:50.546Z,99234.70
2023-03-29T10:38:19.874Z,99235.77
2023-03-29T10:40:53.661Z,99238.03
2023-03-29T10:43:28.004Z,99245.98
2023-03-29T10:46:23.026Z,99248.17
2023-03-29T10:49:08.101Z,99250.79
2023-03-29T10:51:54.876Z,99259.88
2023-03-29T10:54:28.169Z,99262.42
2023-03-29T10:57:05.154Z,99259.59
2023-03-29T10:59:39.903Z,99270.54
2023-03-29T11:02:18.085Z,99272.39
2023-03-29T11:05:27.568Z,99275.02
2023-03-29T11:08:11.298Z,99273.20
2023-03-29T11:11:02.631Z,99277.17
2023-03-29T11:14:03.598Z,99270.75
2023-03-29T11:16:55.189Z,99274.55
2023-03-29T11:19:36.304Z,99273.95
2023-03-29T11:23:00.594Z,99267.85
2023-03-29T11:25:53.881Z,99274.44
2023-03-29T11:28:46.315Z,99276.32
2023-03-29T11:31:44.878Z,99274.20
2023-03-29T11:34:35.140Z,99269.90
2023-03-29T11:37:39.777Z,99275.73
2023-03-29T11:40:42.911Z,99273.59
2023-03-29T11:43:23.616Z,99278.41
2023-03-29T11:46:10.901Z,99276.87
2023-03-29T11:48:49.806Z,99279.59
2023-03-29T11:51:28.954Z,99277.98
2023-03-29T11:54:28.624Z,99285.25
2023-03-29T11:57:25.365Z,99288.95
2023-03-29T12:00:10.436Z,99288.23
2023-03-29T12:03:24.452Z,99286.58
2023-03-29T12:06:07.509Z,99292.77
2023-03-29T12:08:46.036Z,99294.05
2023-03-29T12:11:31.481Z,99302.34
2023-03-29T12:14:05.220Z,99301.80
2023-03-29T12:16:53.900Z,99307.58
2023-03-29T12:19:46.882Z,99299.27
2023-03-29T12:22:15.791Z,99306.39
2023-03-29T12:24:48.303Z,99308.55
2023-03-29T12:27:24.095Z,99305.99
2023-03-29T12:30:17.747Z,99300.27
2023-03-29T12:33:20.533Z,99306.59
2023-03-29T12:37:01.572Z,99313.44
2023-03-29T12:39:47.143Z,99317.15
2023-03-29T12:42:47.389Z,99315.20
2023-03-29T12:45:50.918Z,99319.23
2023-03-29T12:48:21.115Z,99326.02
2023-03-29T12:50:49.938Z,99326.42
2023-03-29T12:53:28.814Z,99324.34
2023-03-29T12:56:01.277Z,99334.20
2023-03-29T12:58:42.402Z,99336.23
2023-03-29T13:01:22.954Z,99341.80
2023-03-29T13:04:14.293Z,99340.77
2023-03-29T13:06:47.249Z,99340.72
2023-03-29T13:09:29.233Z,99340.04
2023-03-29T13:12:06.768Z,99341.33
2023-03-29T13:14:58.898Z,99342.66
2023-03-29T13:17:35.704Z,99347.30
2023-03-29T13:20:10.483Z,99352.39
2023-03-29T13:22:53.157Z,99351.05
2023-03-29T13:25:45.126Z,99363.02
2023-03-29T13:28:46.286Z,99364.21
2023-03-29T13:31:24.275Z,99373.45
2023-03-29T13:34:02.567Z,99374.89
2023-03-29T13:36:45.875Z,99379.08
2023-03-29T13:39:22.405Z,99385.16
2023-03-29T13:41:54.251Z,99390.29
2023-03-29T13:44:29.480Z,99394.61
2023-03-29T13:47:28.006Z,99403.77
2023-03-29T13:50:44.198Z,99415.88
2023-03-29T13:53:41.237Z,99424.33
2023-03-29T13:56:13.110Z,99425.33
2023-03-29T13:58:50.273Z,99427.76
2023-03-29T14:01:24.430Z,99432.02
2023-03-29T14:03:52.485Z,99436.70
2023-03-29T14:06:33.820Z,99443.11
2023-03-29T14:09:05.806Z,99445.19
2023-03-29T14:11:36.706Z,99451.06
2023-03-29T14:14:05.900Z,99461.44
2023-03-29T14:16:38.057Z,99464.11
2023-03-29T14:19:18.371Z,99462.61
2023-03-29T14:21:52.254Z,99466.39
2023-03-29T14:24:25.686Z,99465.79
2023-03-29T14:26:54.011Z,99467.27
2023-03-29T14:29:33.232Z,99472.14
2023-03-29T14:32:18.979Z,99472.62
2023-03-29T14:34:48.869Z,99480.34
2023-03-29T14:37:28.865Z,99484.60
2023-03-29T14:39:56.601Z,99490.09
2023-03-29T14:42:26.238Z,99489.60
2023-03-29T14:45:06.221Z,99490.84
2023-03-29T14:47:35.162Z,99490.80
2023-03-29T14:50:04.854Z,99494.11
2023-03-29T14:52:32.923Z,99498.00
2023-03-29T14:55:03.791Z,99507.25
2023-03-29T14:57:42.979Z,99505.21
2023-03-29T15:00:30.307Z,99507.89
2023-03-29T15:03:03.765Z,99510.09
2023-03-29T15:05:37.238Z,99509.97
2023-03-29T15:08:14.489Z,99510.98
2023-03-29T15:10:48.029Z,99518.77
2023-03-29T15:13:23.364Z,99517.55
2023-03-29T15:16:01.846Z,99525.53
2023-03-29T15:18:45.598Z,99531.02
2023-03-29T15:21:27.256Z,99534.73
2023-03-29T15:24:01.579Z,99528.73
2023-03-29T15:26:38.857Z,99530.42
2023-03-29T15:29:18.143Z,99532.09
2023-03-29T15:31:54.708Z,99536.77
2023-03-29T15:34:32.880Z,99544.92
2023-03-29T15:37:04.578Z,99552.98
2023-03-29T15:39:34.474Z,99556.52
2023-03-29T15:42:09.817Z,99566.23
2023-03-29T15:44:39.148Z,99567.61
2023-03-29T15:47:10.931Z,99567.73
2023-03-29T15:49:39.865Z,99568.25
2023-03-29T15:52:21.457Z,99573.06
2023-03-29T15:54:57.526Z,99579.55
2023-03-29T15:57:25.129Z,99582.66
2023-03-29T15:59:54.174Z,99582.91
2023-03-29T16:02:22.828Z,99586.58
2023-03-29T16:04:53.216Z,99586.43
2023-03-29T16:07:20.632Z,99587.22
2023-03-29T16:09:47.693Z,99589.91
2023-03-29T16:12:19.625Z,99588.35
2023-03-29T16:14:50.822Z,99594.40
2023-03-29T16:17:18.246Z,99597.66
2023-03-29T16:19:45.871Z,99602.13
2023-03-29T16:22:13.649Z,99599.92
2023-03-29T16:24:41.982Z,99599.59
2023-03-29T16:27:10.071Z,99599.17
2023-03-29T16:29:39.461Z,99602.52
2023-03-29T16:32:07.551Z,99605.21
2023-03-29T16:34:43.927Z,99604.15
2023-03-29T16:37:15.387Z,99608.16
2023-03-29T16:39:50.256Z,99600.98
2023-03-29T16:42:22.223Z,99608.86
2023-03-29T16:44:52.244Z,99612.65
2023-03-29T16:47:20.072Z,99615.28
2023-03-29T16:49:50.646Z,99621.34
2023-03-29T16:52:22.768Z,99624.70
2023-03-29T16:54:53.973Z,99629.42
2023-03-29T16:57:26.756Z,99631.50
2023-03-29T16:59:59.603Z,99641.61
2023-03-29T17:02:26.957Z,99649.03
2023-03-29T17:04:54.351Z,99653.73
2023-03-29T17:07:25.768Z,99655.59
2023-03-29T17:09:55.148Z,99653.66
2023-03-29T17:12:26.173Z,99649.95
2023-03-29T17:15:03.102Z,99652.34
2023-03-29T17:18:18.390Z,99656.22
2023-03-29T17:21:26.433Z,99662.72
2023-03-29T17:24:02.436Z,99664.94
2023-03-29T17:26:30.626Z,99665.73
2023-03-29T17:29:01.650Z,99670.54
2023-03-29T17:31:34.247Z,99675.87
2023-03-29T17:34:03.282Z,99674.40
2023-03-29T17:36:33.310Z,99675.11
2023-03-29T17:39:04.224Z,99674.77
2023-03-29T17:41:34.705Z,99678.59
2023-03-29T17:44:05.090Z,99678.86
2023-03-29T17:47:01.617Z,99683.24
2023-03-29T17:49:32.568Z,99685.09
2023-03-29T17:52:01.472Z,99682.02
2023-03-29T17:54:30.795Z,99689.47
2023-03-29T17:57:09.311Z,99693.05
2023-03-29T17:59:38.505Z,99695.77
2023-03-29T18:02:07.464Z,99703.48
2023-03-29T18:04:37.601Z,99710.23
2023-03-29T18:07:06.902Z,99715.04
2023-03-29T18:09:35.226Z,99715.63
2023-03-29T18:12:06.978Z,99723.27
2023-03-29T18:14:41.029Z,99727.34
2023-03-29T18:17:10.276Z,99724.26
2023-03-29T18:19:48.973Z,99735.37
2023-03-29T18:22:20.958Z,99736.37
2023-03-29T18:24:50.475Z,99747.13
2023-03-29T18:27:27.252Z,99740.71
2023-03-29T18:29:54.878Z,99739.90
2023-03-29T18:32:24.086Z,99740.70
2023-03-29T18:34:54.376Z,99740.66
2023-03-29T18:37:22.179Z,99743.31
2023-03-29T18:39:49.499Z,99740.64
2023-03-29T18:42:21.379Z,99742.42
2023-03-29T18:44:49.686Z,99745.10
2023-03-29T18:47:18.205Z,99753.23
2023-03-29T18:49:47.535Z,99757.65
2023-03-29T18:52:14.578Z,99759.41
2023-03-29T18:54:49.860Z,99755.88
2023-03-29T18:57:21.143Z,99755.55
2023-03-29T18:59:53.121Z,99752.05
2023-03-29T19:02:20.349Z,99755.22
2023-03-29T19:04:48.595Z,99755.20
2023-03-29T19:07:17.287Z,99763.53
2023-03-29T19:09:47.648Z,99755.24
2023-03-29T19:12:15.558Z,99755.58
2023-03-29T19:14:50.752Z,99755.03
2023-03-29T19:17:19.454Z,99754.50
2023-03-29T19:19:47.367Z,99755.91
2023-03-29T19:22:18.385Z,99756.84
2023-03-29T19:24:45.661Z,99755.24
2023-03-29T19:27:17.452Z,99751.02
2023-03-29T19:29:47.582Z,99756.92
2023-03-29T19:32:15.176Z,99756.32
2023-03-29T19:34:43.507Z,99759.48
2023-03-29T19:37:10.585Z,99768.39
2023-03-29T19:39:39.604Z,99771.23
2023-03-29T19:42:07.037Z,99771.21
2023-03-29T19:44:37.607Z,99775.79
2023-03-29T19:47:08.613Z,99778.54
2023-03-29T19:49:38.910Z,99778.15
2023-03-29T19:52:07.677Z,99780.16
2023-03-29T19:54:36.883Z,99782.47
2023-03-29T19:57:06.913Z,99788.80
2023-03-29T19:59:36.674Z,99792.70
2023-03-29T20:02:05.896Z,99790.29
2023-03-29T20:04:39.244Z,99786.73
2023-03-29T20:07:16.103Z,99795.52
2023-03-29T20:09:45.317Z,99794.84
2023-03-29T20:12:12.703Z,99798.79
2023-03-29T20:14:41.357Z,99794.98
2023-03-29T20:17:09.518Z,99792.13
2023-03-29T20:19:44.324Z,99793.14
2023-03-29T20:22:21.330Z,99798.83
2023-03-29T20:24:53.116Z,99803.20
2023-03-29T20:27:22.011Z,99803.63
2023-03-29T20:29:54.162Z,99804.98
2023-03-29T20:32:26.647Z,99808.52
2023-03-29T20:34:54.788Z,99810.71
2023-03-29T20:37:23.350Z,99808.82
2023-03-29T20:39:58.610Z,99811.48
2023-03-29T20:42:30.215Z,99811.23
2023-03-29T20:45:00.586Z,99813.39
2023-03-29T20:47:31.876Z,99817.84
2023-03-29T20:50:01.212Z,99816.78
2023-03-29T20:52:35.558Z,99820.42
2023-03-29T20:55:19.190Z,99820.41
2023-03-29T20:58:07.295Z,99819.32
2023-03-29T21:00:36.236Z,99818.55
2023-03-29T21:03:08.840Z,99819.70
2023-03-29T21:05:39.005Z,99818.13
2023-03-29T21:08:07.929Z,99817.73
2023-03-29T21:10:37.840Z,99817.55
2023-03-29T21:13:10.008Z,99824.08
2023-03-29T21:15:49.181Z,99823.45
2023-03-29T21:18:27.535Z,99823.58
2023-03-29T21:21:01.000Z,99824.70
2023-03-29T21:23:29.473Z,99825.62
2023-03-29T21:25:57.482Z,99829.89
2023-03-29T21:28:25.568Z,99829.07
2023-03-29T21:30:53.006Z,99828.28
2023-03-29T21:33:21.959Z,99825.73
2023-03-29T21:35:49.869Z,99826.23
2023-03-29T21:38:18.976Z,99822.83
2023-03-29T21:40:46.859Z,99824.75
2023-03-29T21:43:13.913Z,99823.79
2023-03-29T21:45:43.103Z,99822.46
2023-03-29T21:48:12.376Z,99824.64
2023-03-29T21:50:44.055Z,99825.79
2023-03-29T21:53:11.244Z,99825.55
2023-03-29T21:55:38.417Z,99827.58
2023-03-29T21:58:06.149Z,99825.52
2023-03-29T22:00:33.305Z,99830.86
2023-03-29T22:03:00.955Z,99828.65
2023-03-29T22:05:30.183Z,99835.77
2023-03-29T22:08:09.846Z,99835.99
2023-03-29T22:10:41.877Z,99839.06
2023-03-29T22:13:13.764Z,99841.73
2023-03-29T22:15:42.189Z,99842.98
2023-03-29T22:18:13.039Z,99843.58
2023-03-29T22:20:44.479Z,99842.10
2023-03-29T22:23:17.981Z,99844.33
2023-03-29T22:25:45.845Z,99844.96
2023-03-29T22:28:13.288Z,99842.94
2023-03-29T22:30:41.635Z,99841.77
2023-03-29T22:33:09.249Z,99846.10
2023-03-29T22:35:36.663Z,99845.83
2023-03-29T22:38:03.904Z,99847.83
2023-03-29T22:40:41.314Z,99849.65
2023-03-29T22:43:08.849Z,99850.60
2023-03-29T22:45:36.862Z,99851.71
2023-03-29T22:48:06.252Z,99852.96
2023-03-29T22:50:33.518Z,99847.50
2023-03-29T22:53:02.216Z,99845.45
2023-03-29T22:55:32.932Z,99844.95
2023-03-29T22:58:00.625Z,99841.84
2023-03-29T23:00:27.876Z,99841.54
2023-03-29T23:02:55.408Z,99844.75
2023-03-29T23:05:23.340Z,99841.59
2023-03-29T23:07:51.024Z,99842.43
2023-03-29T23:10:32.284Z,99844.64
2023-03-29T23:13:11.060Z,99849.45
2023-03-29T23:15:42.428Z,99850.36
2023-03-29T23:18:15.707Z,99848.64
2023-03-29T23:20:46.736Z,99847.29
2023-03-29T23:23:15.048Z,99852.98
2023-03-29T23:25:45.786Z,99852.85
2023-03-29T23:28:14.757Z,99855.71
2023-03-29T23:30:45.673Z,99860.17
2023-03-29T23:33:17.143Z,99861.95
2023-03-29T23:35:44.240Z,99867.96
2023-03-29T23:38:13.214Z,99873.63
2023-03-29T23:40:40.630Z,99873.86
2023-03-29T23:43:08.546Z,99875.11
2023-03-29T23:45:35.941Z,99870.41
2023-03-29T23:48:05.677Z,99874.85
2023-03-29T23:50:33.600Z,99870.10
2023-03-29T23:53:01.614Z,99867.48
2023-03-29T23:55:28.790Z,99861.19
2023-03-29T23:57:56.099Z,99863.95
